Time;durP1;ratioP1;P1;durP2;ratioP2;P2;SDS_P1;SDS_P2;PMS_P1;PMS_P2;Temp;Humidity;BMP_temperature;BMP_pressure;BME280_temperature;BME280_humidity;BME280_pressure;Samples;Min_cycle;Max_cycle;Signal;HPM_P1;HPM_P2
2022/08/30 00:01:14;;;;;;;3.20;2.90;;;17.50;99.90;;;;;;5094589;28;20566;-74
2022/08/30 00:03:45;;;;;;;5.97;3.42;;;17.50;99.90;;;;;;5094694;28;20379;-74
2022/08/30 00:06:13;;;;;;;4.95;3.28;;;17.50;99.90;;;;;;5094432;28;20051;-74
2022/08/30 00:08:39;;;;;;;5.68;2.95;;;17.60;99.90;;;;;;5094465;28;20120;-74
2022/08/30 00:11:08;;;;;;;4.90;3.25;;;17.50;99.90;;;;;;5092914;28;20069;-74
2022/08/30 00:13:35;;;;;;;5.18;3.28;;;17.50;99.90;;;;;;5094351;28;20027;-73
2022/08/30 00:16:01;;;;;;;3.97;3.25;;;17.50;99.90;;;;;;5094263;28;20024;-73
2022/08/30 00:18:27;;;;;;;3.65;3.25;;;17.50;99.90;;;;;;5093886;28;20391;-73
2022/08/30 00:20:54;;;;;;;5.40;3.22;;;17.50;99.90;;;;;;5094176;28;20028;-74
2022/08/30 00:23:21;;;;;;;5.43;3.05;;;17.50;99.90;;;;;;5093978;28;20016;-74
2022/08/30 00:25:47;;;;;;;3.05;2.63;;;17.40;99.90;;;;;;5094128;28;20032;-74
2022/08/30 00:28:14;;;;;;;3.80;3.38;;;17.50;99.90;;;;;;5093848;28;20348;-74
2022/08/30 00:30:40;;;;;;;4.55;2.75;;;17.40;99.90;;;;;;5094137;28;20027;-74
2022/08/30 00:33:06;;;;;;;3.17;2.83;;;17.40;99.90;;;;;;5092471;28;20071;-74
2022/08/30 00:35:32;;;;;;;4.20;3.08;;;17.50;99.90;;;;;;5093889;28;20497;-75
2022/08/30 00:37:58;;;;;;;6.85;3.58;;;17.50;99.90;;;;;;5093832;28;20043;-74
2022/08/30 00:40:25;;;;;;;5.30;3.30;;;17.50;99.90;;;;;;5093999;28;20382;-74
2022/08/30 00:42:51;;;;;;;6.63;3.28;;;17.50;99.90;;;;;;5093610;28;20021;-75
2022/08/30 00:45:19;;;;;;;3.40;2.88;;;17.50;99.90;;;;;;5093763;28;20036;-74
2022/08/30 00:47:46;;;;;;;3.17;2.88;;;17.50;99.90;;;;;;5093479;28;20028;-74
2022/08/30 00:50:14;;;;;;;10.20;3.97;;;17.50;99.90;;;;;;5092656;28;20099;-74
2022/08/30 00:52:45;;;;;;;4.78;3.20;;;17.50;99.90;;;;;;5093486;28;20077;-74
2022/08/30 00:55:12;;;;;;;4.63;3.03;;;17.50;99.90;;;;;;5093627;28;20085;-74
2022/08/30 00:57:40;;;;;;;4.93;3.70;;;17.50;99.90;;;;;;5093372;28;20048;-74
2022/08/30 01:00:07;;;;;;;4.45;3.38;;;17.50;99.90;;;;;;5093455;28;20073;-74
2022/08/30 01:02:33;;;;;;;3.50;2.90;;;17.40;99.90;;;;;;5092003;28;20020;-73
2022/08/30 01:05:01;;;;;;;3.80;3.25;;;17.40;99.90;;;;;;5091703;28;20043;-75
2022/08/30 01:07:27;;;;;;;6.40;3.22;;;17.40;99.90;;;;;;5093053;28;20020;-73
2022/08/30 01:09:53;;;;;;;3.78;2.83;;;17.40;99.90;;;;;;5093058;28;20028;-73
2022/08/30 01:12:18;;;;;;;4.50;3.85;;;17.40;99.90;;;;;;5093191;28;20383;-73
2022/08/30 01:14:46;;;;;;;5.35;3.50;;;17.30;99.90;;;;;;5093101;28;20020;-73
2022/08/30 01:17:12;;;;;;;5.32;4.05;;;17.40;99.90;;;;;;5092908;28;20073;-74
2022/08/30 01:19:45;;;;;;;4.13;3.72;;;17.40;99.90;;;;;;5091421;28;20051;-73
2022/08/30 01:22:43;;;;;;;4.78;4.13;;;17.30;99.90;;;;;;5092886;28;20360;-74
2022/08/30 01:25:12;;;;;;;7.32;3.55;;;17.30;99.90;;;;;;5091829;28;20595;-74
2022/08/30 01:27:43;;;;;;;5.13;3.83;;;17.30;99.90;;;;;;5092842;28;20012;-74
2022/08/30 01:30:09;;;;;;;5.30;3.20;;;17.30;99.90;;;;;;5093014;28;20398;-74
2022/08/30 01:32:41;;;;;;;3.60;3.00;;;17.20;99.90;;;;;;5091357;28;20128;-74
2022/08/30 01:35:08;;;;;;;7.93;3.30;;;17.30;99.90;;;;;;5092876;28;20028;-73
2022/08/30 01:37:35;;;;;;;5.18;3.65;;;17.30;99.90;;;;;;5092815;28;20379;-74
2022/08/30 01:40:02;;;;;;;4.40;3.97;;;17.30;99.90;;;;;;5092878;28;20023;-73
2022/08/30 01:42:27;;;;;;;3.35;3.05;;;17.20;99.90;;;;;;5092598;28;20016;-75
2022/08/30 01:44:53;;;;;;;3.42;3.13;;;17.20;99.90;;;;;;5092480;28;20090;-73
2022/08/30 01:47:20;;;;;;;4.55;2.88;;;17.20;99.90;;;;;;5092567;28;20109;-74
2022/08/30 01:49:46;;;;;;;5.90;3.42;;;17.20;99.90;;;;;;5092513;28;20508;-74
2022/08/30 01:52:13;;;;;;;3.67;3.17;;;17.20;99.90;;;;;;5092513;28;20016;-73
2022/08/30 01:54:41;;;;;;;4.50;4.05;;;17.20;99.90;;;;;;5092483;28;20024;-75
2022/08/30 01:57:09;;;;;;;3.72;3.40;;;17.20;99.90;;;;;;5092426;28;20059;-73
2022/08/30 01:59:36;;;;;;;6.82;3.45;;;17.10;99.90;;;;;;5092570;28;20375;-74
2022/08/30 02:02:03;;;;;;;4.40;3.10;;;17.10;99.90;;;;;;5091936;28;20028;-74
2022/08/30 02:04:29;;;;;;;3.83;3.30;;;17.10;99.90;;;;;;5092199;28;20035;-74
2022/08/30 02:06:55;;;;;;;3.58;3.05;;;17.00;99.90;;;;;;5092083;28;20024;-76
2022/08/30 02:09:20;;;;;;;4.00;3.60;;;17.10;99.90;;;;;;5092272;28;20028;-73
2022/08/30 02:11:47;;;;;;;3.88;3.13;;;17.00;99.90;;;;;;5092071;28;20051;-74
2022/08/30 02:14:13;;;;;;;6.20;3.13;;;17.00;99.90;;;;;;5090997;28;20032;-74
2022/08/30 02:16:40;;;;;;;4.70;3.47;;;16.90;99.90;;;;;;5092083;28;20020;-74
2022/08/30 02:19:06;;;;;;;6.25;3.50;;;16.90;99.90;;;;;;5091873;28;20070;-74
2022/08/30 02:21:32;;;;;;;3.67;3.35;;;16.80;99.90;;;;;;5092075;28;20036;-74
2022/08/30 02:23:57;;;;;;;5.68;3.10;;;16.80;99.90;;;;;;5091917;28;20028;-74
2022/08/30 02:26:25;;;;;;;3.67;2.88;;;16.80;99.90;;;;;;5091917;28;20390;-74
2022/08/30 02:28:52;;;;;;;3.25;2.88;;;16.80;99.90;;;;;;5092020;28;20035;-73
2022/08/30 02:31:20;;;;;;;27.80;3.70;;;16.80;99.90;;;;;;5091780;28;20608;-74
2022/08/30 02:33:46;;;;;;;4.22;3.30;;;16.80;99.90;;;;;;5092079;28;20028;-73
2022/08/30 02:36:12;;;;;;;4.55;2.80;;;16.80;99.90;;;;;;5092129;28;20024;-74
2022/08/30 02:38:38;;;;;;;3.85;2.80;;;16.70;99.90;;;;;;5091716;28;20375;-72
2022/08/30 02:41:04;;;;;;;3.95;3.20;;;16.60;99.90;;;;;;5091955;28;20028;-73
2022/08/30 02:43:30;;;;;;;3.83;3.22;;;16.60;99.90;;;;;;5091681;28;20028;-72
2022/08/30 02:45:56;;;;;;;6.00;3.30;;;16.60;99.90;;;;;;5091868;28;20043;-73
2022/08/30 02:48:21;;;;;;;7.40;3.05;;;16.50;99.90;;;;;;5092009;28;20028;-74
2022/08/30 02:50:51;;;;;;;5.10;3.08;;;16.50;99.90;;;;;;5091763;28;20512;-73
2022/08/30 02:53:17;;;;;;;8.20;3.92;;;16.50;99.90;;;;;;5091752;28;20059;-75
2022/08/30 02:55:43;;;;;;;6.00;2.90;;;16.40;99.90;;;;;;5091646;28;20162;-74
2022/08/30 02:58:09;;;;;;;3.92;3.25;;;16.40;99.90;;;;;;5091976;28;20491;-76
2022/08/30 03:00:36;;;;;;;8.15;3.30;;;16.40;99.90;;;;;;5091762;28;20020;-74
2022/08/30 03:03:02;;;;;;;4.75;3.60;;;16.40;99.90;;;;;;5091745;28;20443;-74
2022/08/30 03:05:29;;;;;;;4.18;3.20;;;16.30;99.90;;;;;;5091580;28;20727;-74
2022/08/30 03:07:55;;;;;;;5.47;3.10;;;16.30;99.90;;;;;;5091482;28;20344;-74
2022/08/30 03:10:20;;;;;;;7.65;3.42;;;16.30;99.90;;;;;;5091630;28;20036;-74
2022/08/30 03:12:46;;;;;;;4.82;2.90;;;16.30;99.90;;;;;;5092303;28;20044;-75
2022/08/30 03:15:13;;;;;;;5.20;3.15;;;16.20;99.90;;;;;;5095294;28;20073;-73
2022/08/30 03:17:39;;;;;;;3.42;3.00;;;16.10;99.90;;;;;;5095003;28;20736;-73
2022/08/30 03:20:06;;;;;;;4.40;3.28;;;16.10;99.90;;;;;;5095193;28;20051;-73
2022/08/30 03:22:32;;;;;;;3.75;3.33;;;16.00;99.90;;;;;;5095283;28;20455;-74
2022/08/30 03:25:00;;;;;;;6.95;3.72;;;16.00;99.90;;;;;;5095273;28;20031;-74
2022/08/30 03:27:26;;;;;;;5.57;4.82;;;16.00;99.90;;;;;;5095032;28;20066;-74
2022/08/30 03:29:52;;;;;;;4.25;3.25;;;16.00;99.90;;;;;;5095147;28;20024;-74
2022/08/30 03:32:18;;;;;;;4.07;3.42;;;15.90;99.90;;;;;;5094941;28;20031;-74
2022/08/30 03:34:43;;;;;;;4.18;3.40;;;15.90;99.90;;;;;;5095051;28;20031;-74
2022/08/30 03:37:09;;;;;;;5.03;3.30;;;15.90;99.90;;;;;;5095129;28;20020;-74
2022/08/30 03:39:35;;;;;;;7.68;3.33;;;15.90;99.90;;;;;;5093494;28;20032;-74
2022/08/30 03:42:01;;;;;;;3.42;2.95;;;15.90;99.90;;;;;;5094983;28;20124;-75
2022/08/30 03:44:27;;;;;;;4.25;3.22;;;15.80;99.90;;;;;;5094580;28;20475;-74
2022/08/30 03:46:53;;;;;;;9.35;3.70;;;15.80;99.90;;;;;;5094931;28;20120;-74
2022/08/30 03:49:19;;;;;;;3.30;3.00;;;15.80;99.90;;;;;;5094841;28;20070;-74
2022/08/30 03:51:46;;;;;;;4.68;3.60;;;15.80;99.90;;;;;;5094740;28;20096;-74
2022/08/30 03:54:12;;;;;;;4.38;3.35;;;15.80;99.90;;;;;;5094495;28;20024;-74
2022/08/30 03:56:37;;;;;;;5.30;3.80;;;15.80;99.90;;;;;;5094593;28;20019;-74
2022/08/30 03:59:04;;;;;;;6.80;3.83;;;15.80;99.90;;;;;;5093766;28;20021;-74
2022/08/30 04:01:30;;;;;;;4.70;3.78;;;15.70;99.90;;;;;;5094476;28;20016;-74
2022/08/30 04:03:55;;;;;;;3.92;2.90;;;15.80;99.90;;;;;;5093088;28;20501;-74
2022/08/30 04:06:22;;;;;;;8.85;3.70;;;15.70;99.90;;;;;;5094561;28;20031;-74
2022/08/30 04:08:47;;;;;;;6.13;4.05;;;15.70;99.90;;;;;;5094345;28;20069;-74
2022/08/30 04:11:15;;;;;;;4.50;3.50;;;15.70;99.90;;;;;;5094143;28;20028;-74
2022/08/30 04:13:41;;;;;;;5.00;2.95;;;15.70;99.90;;;;;;5094187;28;20422;-73
2022/08/30 04:16:06;;;;;;;6.90;3.05;;;15.70;99.90;;;;;;5096919;28;20016;-74
2022/08/30 04:18:33;;;;;;;3.75;2.70;;;15.70;99.90;;;;;;5093585;28;20055;-74
2022/08/30 04:20:59;;;;;;;5.43;4.28;;;16.30;99.90;;;;;;5094189;28;20482;-76
2022/08/30 04:23:24;;;;;;;3.88;3.20;;;16.90;99.90;;;;;;5093768;28;20020;-78
2022/08/30 04:25:50;;;;;;;8.82;5.40;;;17.20;99.90;;;;;;5094366;28;20603;-77
2022/08/30 04:28:16;;;;;;;6.57;3.75;;;17.50;99.90;;;;;;5094034;28;20035;-76
2022/08/30 04:30:43;;;;;;;7.75;3.10;;;17.70;99.90;;;;;;5094337;28;20471;-78
2022/08/30 04:33:11;;;;;;;4.80;3.65;;;18.00;99.90;;;;;;5094543;28;20027;-79
2022/08/30 04:35:40;;;;;;;7.03;4.28;;;18.20;99.90;;;;;;5094215;28;20020;-75
2022/08/30 04:38:06;;;;;;;4.32;3.55;;;18.20;99.90;;;;;;5094078;28;20017;-74
2022/08/30 04:40:32;;;;;;;7.10;5.13;;;18.10;99.90;;;;;;5094078;28;20028;-75
2022/08/30 04:42:58;;;;;;;14.10;5.55;;;18.00;99.90;;;;;;5094167;28;20833;-74
2022/08/30 04:45:23;;;;;;;12.27;5.85;;;17.90;99.90;;;;;;5094266;28;20039;-74
2022/08/30 04:47:49;;;;;;;7.70;5.55;;;18.00;99.90;;;;;;5093995;28;20028;-74
2022/08/30 04:50:17;;;;;;;26.63;4.45;;;18.10;99.90;;;;;;5093837;28;20467;-74
2022/08/30 04:52:43;;;;;;;11.73;4.20;;;18.30;99.90;;;;;;5093901;28;20012;-75
2022/08/30 04:55:10;;;;;;;5.93;3.72;;;18.20;99.90;;;;;;5093854;28;20059;-73
2022/08/30 04:57:37;;;;;;;4.43;4.03;;;18.30;99.90;;;;;;5093768;28;20016;-74
2022/08/30 05:00:06;;;;;;;5.97;3.67;;;18.20;99.90;;;;;;5092756;28;20425;-73
2022/08/30 05:02:32;;;;;;;3.40;3.08;;;18.10;99.90;;;;;;5093775;28;20020;-76
2022/08/30 05:07:41;;;;;;;6.03;2.92;;;17.90;99.90;;;;;;5093464;28;20027;-75
2022/08/30 05:10:08;;;;;;;10.30;3.42;;;17.70;99.90;;;;;;5093492;28;20024;-74
2022/08/30 05:12:33;;;;;;;6.70;3.30;;;17.60;99.90;;;;;;5093615;28;20024;-74
2022/08/30 05:14:59;;;;;;;4.97;3.67;;;17.70;99.90;;;;;;5092037;28;20035;-74
2022/08/30 05:17:24;;;;;;;4.20;3.22;;;17.80;99.90;;;;;;5093438;28;20024;-74
2022/08/30 05:19:50;;;;;;;4.85;3.40;;;17.90;99.90;;;;;;5093088;28;20067;-75
2022/08/30 05:22:16;;;;;;;8.15;3.80;;;18.00;99.90;;;;;;5092140;28;20455;-74
2022/08/30 05:24:41;;;;;;;7.60;4.32;;;18.00;99.90;;;;;;5093068;28;20081;-74
2022/08/30 05:27:07;;;;;;;4.70;3.72;;;17.80;99.90;;;;;;5091514;28;20108;-74
2022/08/30 05:29:33;;;;;;;5.47;3.25;;;17.70;99.90;;;;;;5093136;28;20154;-74
2022/08/30 05:31:58;;;;;;;4.28;3.88;;;17.70;99.90;;;;;;5093010;28;20021;-74
2022/08/30 05:34:25;;;;;;;3.67;3.38;;;17.80;99.90;;;;;;5093078;28;20027;-74
2022/08/30 05:36:52;;;;;;;3.28;2.97;;;17.80;99.90;;;;;;5092304;28;20030;-74
2022/08/30 05:39:17;;;;;;;7.18;3.70;;;17.80;99.90;;;;;;5092942;28;20024;-74
2022/08/30 05:41:43;;;;;;;3.40;3.10;;;17.70;99.90;;;;;;5092949;28;20441;-75
2022/08/30 05:44:09;;;;;;;6.30;3.30;;;17.70;99.90;;;;;;5092908;28;20034;-74
2022/08/30 05:46:35;;;;;;;7.70;4.00;;;17.80;99.90;;;;;;5092771;28;20059;-75
2022/08/30 05:49:03;;;;;;;6.88;3.80;;;17.80;99.90;;;;;;5093051;28;20024;-74
2022/08/30 05:51:33;;;;;;;4.25;3.33;;;18.10;99.90;;;;;;5092903;28;20085;-72
2022/08/30 05:53:59;;;;;;;6.72;3.65;;;18.10;99.90;;;;;;5092624;28;20020;-73
2022/08/30 05:56:29;;;;;;;5.65;4.03;;;18.00;99.90;;;;;;5091661;28;20506;-74
2022/08/30 05:58:54;;;;;;;4.28;3.22;;;18.10;99.90;;;;;;5092488;28;20115;-73
2022/08/30 06:01:29;;;;;;;9.38;3.80;;;18.10;99.90;;;;;;5092865;28;20095;-74
2022/08/30 06:03:57;;;;;;;8.07;4.13;;;18.20;99.90;;;;;;5092467;28;20451;-73
2022/08/30 06:06:23;;;;;;;5.40;4.10;;;18.10;99.90;;;;;;5092690;28;20032;-74
2022/08/30 06:08:49;;;;;;;4.78;4.10;;;18.10;99.90;;;;;;5092326;28;20059;-73
2022/08/30 06:11:18;;;;;;;6.15;4.78;;;18.10;99.90;;;;;;5092124;28;20013;-73
2022/08/30 06:13:44;;;;;;;5.45;4.55;;;18.10;99.90;;;;;;5092294;28;20036;-74
2022/08/30 06:16:12;;;;;;;9.38;4.05;;;18.20;99.90;;;;;;5092044;28;20076;-74
2022/08/30 06:18:38;;;;;;;5.70;3.60;;;18.30;99.90;;;;;;5091996;28;20445;-74
2022/08/30 06:21:03;;;;;;;7.32;4.68;;;18.50;99.90;;;;;;5094009;28;20085;-75
2022/08/30 06:23:29;;;;;;;5.82;3.63;;;18.60;99.90;;;;;;5094986;28;20036;-75
2022/08/30 06:25:55;;;;;;;3.92;3.47;;;18.70;99.90;;;;;;5093613;28;20372;-74
2022/08/30 06:28:21;;;;;;;9.75;4.13;;;18.80;99.90;;;;;;5092712;28;20020;-76
2022/08/30 06:30:47;;;;;;;4.38;3.55;;;18.90;99.90;;;;;;5092640;28;20028;-79
2022/08/30 06:33:13;;;;;;;4.80;3.88;;;19.00;99.90;;;;;;5091240;28;20020;-77
2022/08/30 06:35:38;;;;;;;4.78;4.28;;;19.10;99.90;;;;;;5092353;28;20028;-74
2022/08/30 06:38:04;;;;;;;4.82;3.45;;;19.20;99.90;;;;;;5092584;28;20079;-75
2022/08/30 06:40:30;;;;;;;8.88;3.88;;;19.40;99.90;;;;;;5091940;28;20035;-73
2022/08/30 06:42:56;;;;;;;4.70;3.30;;;19.60;99.90;;;;;;5091193;28;20366;-75
2022/08/30 06:45:21;;;;;;;4.93;2.90;;;19.70;99.90;;;;;;5092388;28;20115;-78
2022/08/30 06:47:47;;;;;;;4.65;3.65;;;19.90;99.90;;;;;;5093610;28;20532;-74
2022/08/30 06:50:15;;;;;;;5.15;3.22;;;20.00;99.90;;;;;;5096804;28;20107;-77
2022/08/30 06:52:42;;;;;;;3.92;2.72;;;20.10;99.90;;;;;;5096305;28;20048;-74
2022/08/30 06:55:13;;;;;;;6.65;3.70;;;20.20;99.90;;;;;;5096073;28;20081;-74
2022/08/30 06:57:39;;;;;;;4.63;3.63;;;20.40;99.90;;;;;;5095910;28;20020;-74
2022/08/30 07:00:08;;;;;;;3.75;3.05;;;20.50;99.90;;;;;;5096290;28;20509;-75
2022/08/30 07:02:35;;;;;;;5.68;2.90;;;20.70;99.90;;;;;;5095683;28;20012;-73
2022/08/30 07:05:01;;;;;;;4.10;3.40;;;20.80;99.90;;;;;;5096583;28;20043;-74
2022/08/30 07:07:27;;;;;;;4.60;3.10;;;20.80;99.90;;;;;;5096441;28;20016;-74
2022/08/30 07:09:53;;;;;;;6.78;3.75;;;20.90;99.90;;;;;;5096249;28;20379;-74
2022/08/30 07:12:19;;;;;;;5.05;3.45;;;20.90;99.90;;;;;;5096387;28;20016;-76
2022/08/30 07:14:45;;;;;;;5.18;3.20;;;21.00;99.90;;;;;;5096074;28;20020;-74
2022/08/30 07:19:55;;;;;;;3.90;2.70;;;20.90;99.90;;;;;;5095901;28;20079;-75
2022/08/30 07:22:21;;;;;;;4.00;3.17;;;20.80;99.90;;;;;;5096053;28;20059;-74
2022/08/30 07:24:47;;;;;;;5.68;2.92;;;20.80;99.90;;;;;;5096010;28;20571;-74
2022/08/30 07:27:13;;;;;;;2.95;2.50;;;20.80;99.90;;;;;;5096096;28;20024;-74
2022/08/30 07:29:39;;;;;;;3.53;3.08;;;20.90;99.90;;;;;;5096043;28;20028;-74
2022/08/30 07:32:04;;;;;;;2.45;2.22;;;21.00;99.90;;;;;;5095879;28;20447;-73
2022/08/30 07:34:30;;;;;;;3.85;2.92;;;21.10;99.90;;;;;;5095785;28;20027;-76
2022/08/30 07:36:56;;;;;;;5.65;3.00;;;21.20;99.90;;;;;;5095699;28;20097;-74
2022/08/30 07:39:21;;;;;;;3.38;2.72;;;21.20;99.90;;;;;;5095845;28;20023;-76
2022/08/30 07:41:47;;;;;;;3.58;2.60;;;21.20;99.90;;;;;;5095332;28;20112;-75
2022/08/30 07:44:13;;;;;;;5.90;2.92;;;21.40;99.90;;;;;;5095476;28;20036;-74
2022/08/30 07:46:40;;;;;;;3.38;2.35;;;21.50;99.90;;;;;;5095644;28;20040;-74
2022/08/30 07:49:06;;;;;;;4.57;2.53;;;21.80;99.90;;;;;;5095631;28;20459;-75
2022/08/30 07:51:32;;;;;;;6.03;2.70;;;21.90;99.90;;;;;;5095185;28;20028;-75
2022/08/30 07:53:59;;;;;;;3.58;2.47;;;22.00;99.90;;;;;;5095900;28;20033;-75
2022/08/30 07:56:25;;;;;;;3.28;2.97;;;22.10;99.90;;;;;;5095832;28;20028;-75
2022/08/30 07:58:51;;;;;;;2.92;2.63;;;22.20;99.90;;;;;;5094857;28;20501;-74
2022/08/30 08:01:18;;;;;;;4.32;2.60;;;22.40;99.90;;;;;;5095400;28;20036;-76
2022/08/30 08:03:45;;;;;;;4.60;2.70;;;22.50;99.90;;;;;;5095519;28;20024;-74
2022/08/30 08:06:13;;;;;;;5.85;3.30;;;22.60;99.10;;;;;;5095364;28;20032;-74
2022/08/30 08:08:40;;;;;;;5.75;2.47;;;22.80;98.90;;;;;;5095419;28;20031;-74
2022/08/30 08:11:13;;;;;;;4.65;2.60;;;22.90;97.10;;;;;;5095095;28;20039;-76
2022/08/30 08:13:39;;;;;;;2.83;1.92;;;23.10;97.40;;;;;;5095733;28;20399;-75
2022/08/30 08:16:05;;;;;;;3.60;2.30;;;23.10;96.70;;;;;;5095306;28;20375;-79
2022/08/30 08:18:32;;;;;;;2.63;2.25;;;23.30;96.60;;;;;;5093424;28;20040;-74
2022/08/30 08:20:59;;;;;;;4.38;2.28;;;23.40;95.10;;;;;;5095156;28;20525;-76
2022/08/30 08:23:24;;;;;;;4.43;2.42;;;23.50;94.80;;;;;;5095153;28;20024;-76
2022/08/30 08:25:50;;;;;;;2.90;1.83;;;23.60;93.70;;;;;;5094323;28;20043;-76
2022/08/30 08:28:16;;;;;;;3.72;2.00;;;23.80;94.00;;;;;;5094797;28;20034;-75
2022/08/30 08:30:42;;;;;;;2.20;2.00;;;24.00;93.30;;;;;;5094980;28;20103;-75
2022/08/30 08:33:09;;;;;;;1.60;1.50;;;24.20;92.80;;;;;;5094850;28;20077;-76
2022/08/30 08:35:35;;;;;;;2.65;1.73;;;24.20;91.70;;;;;;5094648;28;20105;-78
2022/08/30 08:38:01;;;;;;;5.53;2.20;;;24.30;91.90;;;;;;5094649;28;20028;-77
2022/08/30 08:40:28;;;;;;;3.53;1.95;;;24.30;90.90;;;;;;5094717;28;20055;-75
2022/08/30 08:43:02;;;;;;;2.80;1.50;;;24.30;90.90;;;;;;5094802;28;20016;-78
2022/08/30 08:45:50;;;;;;;4.03;2.33;;;24.40;91.70;;;;;;5094466;28;20067;-75
2022/08/30 08:48:22;;;;;;;3.95;1.65;;;24.50;91.30;;;;;;5094391;28;20020;-74
2022/08/30 08:53:36;;;;;;;3.67;1.98;;;24.80;91.70;;;;;;5094405;28;20031;-74
2022/08/30 08:56:12;;;;;;;1.67;1.40;;;24.90;91.60;;;;;;5094311;28;20056;-76
2022/08/30 08:58:50;;;;;;;5.75;2.05;;;25.10;90.10;;;;;;5093495;28;20059;-75
2022/08/30 09:01:18;;;;;;;4.13;1.90;;;25.20;90.40;;;;;;5093812;28;20055;-75
2022/08/30 09:03:44;;;;;;;2.97;2.05;;;25.30;90.00;;;;;;5093668;28;20012;-77
2022/08/30 09:06:22;;;;;;;2.28;1.50;;;25.40;88.00;;;;;;5093792;28;20379;-74
2022/08/30 09:08:48;;;;;;;5.15;2.00;;;25.50;86.50;;;;;;5092379;28;20024;-75
2022/08/30 09:11:25;;;;;;;2.10;1.90;;;25.80;87.10;;;;;;5092482;28;20097;-75
2022/08/30 09:13:51;;;;;;;3.38;1.85;;;25.80;85.00;;;;;;5094236;28;20016;-78
2022/08/30 09:16:50;;;;;;;1.58;1.42;;;25.80;85.60;;;;;;5094216;28;20024;-76
2022/08/30 09:19:42;;;;;;;3.10;1.80;;;25.80;85.20;;;;;;5093795;28;20376;-75
2022/08/30 09:22:14;;;;;;;3.13;1.75;;;25.70;86.20;;;;;;5094268;28;20371;-76
2022/08/30 09:24:43;;;;;;;2.35;1.85;;;25.70;86.10;;;;;;5094019;28;20035;-76
2022/08/30 09:27:19;;;;;;;2.35;1.60;;;25.60;87.20;;;;;;5094039;28;20118;-75
2022/08/30 09:29:51;;;;;;;;;;;25.70;85.80;;;;;;5094423;28;20099;-77
2022/08/30 09:32:34;;;;;;;1.80;1.50;;;25.80;84.70;;;;;;5094027;28;20341;-75
2022/08/30 09:34:59;;;;;;;1.98;1.65;;;26.00;85.70;;;;;;5093893;28;20039;-76
2022/08/30 09:37:33;;;;;;;2.08;1.23;;;25.90;83.20;;;;;;5093544;28;20020;-75
2022/08/30 09:39:59;;;;;;;3.50;1.80;;;26.00;85.30;;;;;;5094184;28;20633;-74
2022/08/30 09:42:28;;;;;;;3.05;1.58;;;26.20;84.80;;;;;;5094158;28;20059;-78
2022/08/30 09:45:10;;;;;;;3.90;1.60;;;26.40;83.90;;;;;;5093965;28;20039;-77
2022/08/30 09:47:42;;;;;;;2.53;1.55;;;26.50;84.30;;;;;;5103949;28;20028;-74
2022/08/30 09:50:14;;;;;;;1.70;1.60;;;26.40;81.50;;;;;;5104349;28;20024;-75
2022/08/30 09:53:17;;;;;;;2.25;1.67;;;26.10;81.70;;;;;;5095207;28;20094;-76
2022/08/30 09:56:02;;;;;;;2.55;1.80;;;26.10;82.60;;;;;;5090536;28;20376;-75
2022/08/30 09:58:51;;;;;;;4.27;1.87;;;26.10;82.10;;;;;;5094052;28;20016;-77
2022/08/30 10:01:26;;;;;;;2.00;1.63;;;26.00;82.90;;;;;;5093832;28;20256;-76
2022/08/30 10:04:01;;;;;;;2.20;2.00;;;26.00;82.60;;;;;;5093539;28;20027;-76
2022/08/30 10:06:43;;;;;;;2.83;1.80;;;25.90;84.00;;;;;;5093166;28;20035;-76
2022/08/30 10:09:17;;;;;;;5.20;1.48;;;26.00;82.20;;;;;;5093040;28;20028;-75
2022/08/30 10:12:10;;;;;;;1.73;1.63;;;26.20;84.60;;;;;;5093018;28;20030;-76
2022/08/30 10:15:01;;;;;;;5.28;2.20;;;26.40;83.30;;;;;;5092519;28;20473;-74
2022/08/30 10:17:38;;;;;;;6.63;2.10;;;26.70;81.70;;;;;;5093009;28;20044;-75
2022/08/30 10:20:38;;;;;;;3.08;1.73;;;26.70;80.90;;;;;;5092782;28;20055;-75
2022/08/30 10:23:11;;;;;;;2.97;2.30;;;26.80;80.30;;;;;;5091268;28;20044;-76
2022/08/30 10:25:47;;;;;;;3.63;1.88;;;26.80;80.90;;;;;;5093054;28;20043;-75
2022/08/30 10:28:39;;;;;;;2.38;1.63;;;26.90;80.40;;;;;;5091646;28;20041;-75
2022/08/30 10:31:26;;;;;;;1.88;1.63;;;27.00;79.20;;;;;;5092498;28;20040;-76
2022/08/30 10:33:57;;;;;;;3.78;1.88;;;27.30;88.90;;;;;;5091714;28;20024;-76
2022/08/30 10:36:32;;;;;;;3.83;1.83;;;27.10;85.20;;;;;;5092636;28;20029;-74
2022/08/30 10:39:00;;;;;;;1.98;1.73;;;27.20;84.50;;;;;;5092570;28;20111;-75
2022/08/30 10:41:39;;;;;;;3.03;1.80;;;27.20;78.80;;;;;;5092435;28;20104;-76
2022/08/30 10:44:31;;;;;;;2.70;1.92;;;27.50;78.40;;;;;;5092905;28;20084;-76
2022/08/30 10:47:25;;;;;;;5.82;1.45;;;27.50;77.80;;;;;;5092937;28;20522;-77
2022/08/30 10:50:08;;;;;;;3.92;1.70;;;27.70;78.90;;;;;;5092832;28;20028;-77
2022/08/30 10:52:56;;;;;;;5.10;1.80;;;27.80;77.80;;;;;;5092568;28;20020;-75
2022/08/30 10:55:28;;;;;;;2.17;1.92;;;27.80;78.60;;;;;;5092512;28;20077;-76
2022/08/30 10:58:02;;;;;;;2.08;1.55;;;27.70;77.80;;;;;;5092537;28;20108;-78
2022/08/30 11:00:56;;;;;;;3.55;1.73;;;27.80;76.60;;;;;;5092783;28;20036;-76
2022/08/30 11:03:24;;;;;;;3.17;1.60;;;27.70;77.20;;;;;;5092636;28;20027;-74
2022/08/30 11:06:25;;;;;;;2.47;1.48;;;27.70;78.00;;;;;;5092559;28;20120;-76
2022/08/30 11:09:01;;;;;;;2.28;1.60;;;27.50;82.90;;;;;;5091167;28;20166;-76
2022/08/30 11:11:38;;;;;;;3.83;1.98;;;27.10;77.80;;;;;;5092657;28;20103;-76
2022/08/30 11:14:07;;;;;;;5.53;1.77;;;27.00;79.00;;;;;;5092574;28;20016;-75
2022/08/30 11:16:40;;;;;;;2.72;1.70;;;26.90;79.20;;;;;;5092726;28;20020;-76
2022/08/30 11:19:15;;;;;;;1.88;1.33;;;26.80;78.20;;;;;;5092110;28;20043;-76
2022/08/30 11:21:43;;;;;;;5.82;1.88;;;26.80;79.70;;;;;;5092412;28;20043;-76
2022/08/30 11:24:16;;;;;;;3.67;1.80;;;26.90;79.00;;;;;;5092305;28;20368;-74
2022/08/30 11:26:48;;;;;;;2.42;1.30;;;27.00;78.90;;;;;;5092538;28;20024;-77
2022/08/30 11:29:27;;;;;;;2.15;1.85;;;27.30;79.00;;;;;;5092259;28;20020;-78
2022/08/30 11:31:58;;;;;;;3.85;1.98;;;27.50;77.50;;;;;;5092250;28;20026;-78
2022/08/30 11:34:45;;;;;;;2.25;2.05;;;27.80;83.90;;;;;;5094201;28;20465;-78
2022/08/30 11:37:35;;;;;;;1.65;1.50;;;27.90;76.60;;;;;;5095923;28;20502;-76
2022/08/30 11:40:33;;;;;;;4.93;2.35;;;28.20;76.70;;;;;;5095665;28;20107;-75
2022/08/30 11:43:34;;;;;;;1.80;1.70;;;28.50;80.70;;;;;;5095472;28;20036;-76
2022/08/30 11:46:18;;;;;;;2.92;1.85;;;28.20;73.00;;;;;;5095708;28;20040;-76
2022/08/30 11:48:50;;;;;;;2.60;1.42;;;28.30;75.80;;;;;;5095608;28;20099;-77
2022/08/30 11:51:57;;;;;;;4.60;2.30;;;28.20;76.10;;;;;;5095705;28;20024;-79
2022/08/30 11:54:40;;;;;;;4.50;1.50;;;28.20;75.50;;;;;;5093373;28;20027;-76
2022/08/30 11:57:22;;;;;;;3.15;1.73;;;28.30;75.10;;;;;;5095224;28;20465;-77
2022/08/30 12:00:01;;;;;;;3.92;1.58;;;28.40;75.50;;;;;;5095375;28;20020;-77
2022/08/30 12:02:48;;;;;;;2.67;1.30;;;28.50;78.60;;;;;;5095399;28;20383;-76
2022/08/30 12:05:38;;;;;;;2.58;1.77;;;28.40;73.10;;;;;;5095436;28;20028;-77
2022/08/30 12:08:32;;;;;;;1.77;1.60;;;28.30;73.40;;;;;;5095211;28;20069;-78
2022/08/30 12:11:04;;;;;;;2.60;1.42;;;28.30;73.50;;;;;;5095173;28;20020;-76
2022/08/30 12:13:36;;;;;;;1.88;1.77;;;28.10;73.40;;;;;;5095181;28;20099;-77
2022/08/30 12:16:22;;;;;;;2.03;1.73;;;27.70;74.00;;;;;;5095078;28;20378;-77
2022/08/30 12:18:59;;;;;;;5.63;1.65;;;27.50;75.00;;;;;;5094846;28;20048;-76
2022/08/30 12:21:32;;;;;;;2.88;2.10;;;27.20;75.70;;;;;;5095118;28;20055;-78
2022/08/30 12:24:04;;;;;;;3.15;2.03;;;27.10;76.00;;;;;;5095141;28;20532;-78
2022/08/30 12:26:37;;;;;;;1.88;1.77;;;26.90;77.50;;;;;;5094906;28;20475;-78
2022/08/30 12:29:22;;;;;;;1.48;1.38;;;26.90;76.70;;;;;;5094808;28;20447;-76
2022/08/30 12:31:53;;;;;;;1.83;1.58;;;26.90;76.50;;;;;;5094791;28;20036;-74
2022/08/30 12:34:22;;;;;;;3.35;1.90;;;27.00;76.40;;;;;;5094363;28;20020;-76
2022/08/30 12:36:56;;;;;;;3.92;1.50;;;27.00;74.90;;;;;;5094593;28;20031;-77
2022/08/30 12:39:28;;;;;;;4.38;1.77;;;26.90;75.70;;;;;;5094658;28;20439;-76
2022/08/30 12:41:55;;;;;;;2.83;1.88;;;27.00;85.10;;;;;;5094780;28;20059;-75
2022/08/30 12:44:25;;;;;;;3.17;1.98;;;27.20;74.80;;;;;;5094184;28;20028;-77
2022/08/30 12:47:00;;;;;;;2.80;1.67;;;27.40;74.10;;;;;;5094445;28;20481;-78
2022/08/30 12:49:29;;;;;;;3.85;2.03;;;27.60;74.10;;;;;;5094364;28;20405;-77
2022/08/30 12:51:55;;;;;;;1.65;1.55;;;27.70;72.10;;;;;;5094543;28;20089;-77
2022/08/30 12:54:26;;;;;;;6.43;1.92;;;27.80;72.70;;;;;;5094557;28;20020;-76
2022/08/30 12:56:57;;;;;;;1.60;1.50;;;28.00;72.60;;;;;;5094055;28;20116;-78
2022/08/30 12:59:50;;;;;;;5.93;1.88;;;28.10;72.10;;;;;;5094502;28;20340;-76
2022/08/30 13:02:15;;;;;;;1.40;1.30;;;28.20;71.70;;;;;;5094160;28;20032;-77
2022/08/30 13:04:42;;;;;;;3.13;1.80;;;28.50;72.30;;;;;;5094009;28;20031;-76
2022/08/30 13:07:07;;;;;;;5.10;2.00;;;28.60;70.50;;;;;;5094163;28;20030;-76
2022/08/30 13:09:41;;;;;;;2.72;1.50;;;28.80;71.60;;;;;;5096596;28;20091;-76
2022/08/30 13:12:20;;;;;;;1.77;1.38;;;29.00;71.10;;;;;;5099647;28;20035;-78